Time;durP1;ratioP1;P1;durP2;ratioP2;P2;SDS_P1;SDS_P2;PMS_P1;PMS_P2;Temp;Humidity;BMP_temperature;BMP_pressure;BME280_temperature;BME280_humidity;BME280_pressure;Samples;Min_cycle;Max_cycle;Signal;HPM_P1;HPM_P2
2023/05/20 00:00:07;;;;;;;12.87;10.47;;;;;;;15.12;100.00;101854.19;2073677;28;20196;-67
2023/05/20 00:01:08;;;;;;;12.33;10.40;;;;;;;15.15;100.00;101847.72;2067237;28;20221;-67
2023/05/20 00:02:08;;;;;;;11.40;10.00;;;;;;;15.16;100.00;101843.72;2065211;28;20536;-67
2023/05/20 00:03:08;;;;;;;12.23;9.87;;;;;;;15.06;100.00;101831.56;2068673;28;20204;-67
2023/05/20 00:04:09;;;;;;;12.50;9.63;;;;;;;15.20;100.00;101844.41;2071376;28;20188;-67
2023/05/20 00:05:09;;;;;;;12.23;10.20;;;;;;;15.22;100.00;101853.94;2065139;28;20261;-67
2023/05/20 00:06:10;;;;;;;11.53;9.63;;;;;;;15.13;100.00;101850.16;2065723;28;20178;-67
2023/05/20 00:07:10;;;;;;;13.63;9.63;;;;;;;15.12;100.00;101856.97;2072892;28;20196;-67
2023/05/20 00:08:10;;;;;;;11.47;10.20;;;;;;;15.12;100.00;101854.97;2073539;28;20208;-67
2023/05/20 00:09:11;;;;;;;14.33;10.30;;;;;;;15.18;100.00;101856.03;2072823;28;20217;-67
2023/05/20 00:10:11;;;;;;;12.50;9.80;;;;;;;15.22;100.00;101851.13;2073443;28;20189;-67
2023/05/20 00:11:12;;;;;;;10.37;8.77;;;;;;;15.28;100.00;101852.22;2073558;28;20663;-67
2023/05/20 00:12:12;;;;;;;12.33;9.77;;;;;;;15.28;100.00;101851.41;2073326;28;20184;-67
2023/05/20 00:13:12;;;;;;;11.20;9.33;;;;;;;15.30;100.00;101848.97;2073292;28;20232;-67
2023/05/20 00:14:13;;;;;;;12.20;9.27;;;;;;;15.31;100.00;101862.50;2073425;28;20205;-67
2023/05/20 00:15:13;;;;;;;10.33;8.90;;;;;;;15.34;100.00;101844.13;2073552;28;20188;-67
2023/05/20 00:16:14;;;;;;;10.20;9.10;;;;;;;15.38;100.00;101851.19;2066336;28;20194;-67
2023/05/20 00:17:14;;;;;;;11.10;9.40;;;;;;;15.33;100.00;101840.56;2065108;28;20192;-67
2023/05/20 00:18:15;;;;;;;11.50;9.17;;;;;;;15.41;100.00;101858.69;2068666;28;20673;-67
2023/05/20 00:19:15;;;;;;;10.30;9.40;;;;;;;15.38;100.00;101848.38;2064716;28;20191;-67
2023/05/20 00:20:15;;;;;;;10.00;8.70;;;;;;;15.38;100.00;101856.75;2067653;28;20623;-67
2023/05/20 00:21:16;;;;;;;11.73;9.40;;;;;;;15.39;100.00;101838.81;2073036;28;20231;-67
2023/05/20 00:22:16;;;;;;;11.07;9.03;;;;;;;14.98;100.00;101771.56;2073036;28;20182;-67
2023/05/20 00:23:17;;;;;;;9.83;8.83;;;;;;;15.42;100.00;101832.31;2067852;28;20201;-67
2023/05/20 00:24:17;;;;;;;12.30;9.40;;;;;;;15.36;100.00;101822.91;2074282;28;20201;-67
2023/05/20 00:25:17;;;;;;;9.30;8.40;;;;;;;15.38;100.00;101823.25;2067354;28;20198;-67
2023/05/20 00:26:20;;;;;;;10.67;8.60;;;;;;;15.46;100.00;101833.03;2065110;28;20223;-67
2023/05/20 00:27:20;;;;;;;12.47;8.97;;;;;;;15.28;100.00;101810.31;2068947;28;20569;-66
2023/05/20 00:28:22;;;;;;;10.03;8.97;;;;;;;15.42;100.00;101834.34;2073146;28;20432;-67
2023/05/20 00:29:22;;;;;;;17.07;9.10;;;;;;;15.38;100.00;101844.81;2070439;28;20602;-67
2023/05/20 00:30:23;;;;;;;15.50;8.83;;;;;;;15.40;100.00;101840.38;2064297;28;20452;-67
2023/05/20 00:31:23;;;;;;;10.17;8.77;;;;;;;15.42;100.00;101842.72;2064807;28;20185;-67
2023/05/20 00:32:24;;;;;;;12.57;9.33;;;;;;;15.42;100.00;101835.13;2065354;28;20198;-67
2023/05/20 00:33:25;;;;;;;12.10;8.57;;;;;;;15.45;100.00;101847.44;2071437;28;20200;-67
2023/05/20 00:34:25;;;;;;;12.23;8.77;;;;;;;15.43;100.00;101839.47;2073143;28;20191;-67
2023/05/20 00:35:25;;;;;;;10.03;8.53;;;;;;;15.42;100.00;101840.72;2073160;28;20194;-67
2023/05/20 00:36:26;;;;;;;11.70;8.90;;;;;;;15.43;100.00;101844.31;2073124;28;20199;-67
2023/05/20 00:37:27;;;;;;;11.90;9.13;;;;;;;15.43;100.00;101833.91;2080024;28;20184;-67
2023/05/20 00:38:27;;;;;;;12.33;8.93;;;;;;;15.42;100.00;101842.72;2079868;28;20188;-67
2023/05/20 00:39:29;;;;;;;11.43;8.83;;;;;;;15.40;100.00;101845.16;2064922;28;20758;-67
2023/05/20 00:40:29;;;;;;;13.93;9.07;;;;;;;15.38;100.00;101837.22;2065105;28;20238;-67
2023/05/20 00:41:31;;;;;;;13.13;8.70;;;;;;;15.36;100.00;101836.88;2065051;28;21106;-67
2023/05/20 00:42:31;;;;;;;13.67;8.70;;;;;;;15.37;100.00;101844.03;2064889;28;20663;-67
2023/05/20 00:43:32;;;;;;;11.00;8.50;;;;;;;14.97;100.00;101767.16;2069800;28;20447;-67
2023/05/20 00:44:32;;;;;;;10.77;8.63;;;;;;;15.38;100.00;101839.22;2073224;28;20208;-67
2023/05/20 00:45:32;;;;;;;11.47;8.70;;;;;;;15.37;100.00;101829.28;2070787;28;20184;-66
2023/05/20 00:46:34;;;;;;;12.27;8.60;;;;;;;14.30;100.00;101661.94;2066341;28;20240;-67
2023/05/20 00:47:38;;;;;;;13.63;9.30;;;;;;;15.33;100.00;101829.38;2072294;28;20208;-67
2023/05/20 00:48:42;;;;;;;13.90;9.57;;;;;;;15.33;100.00;101828.59;2065195;28;20425;-67
2023/05/20 00:49:44;;;;;;;9.97;8.80;;;;;;;15.31;100.00;101834.56;2064685;28;20417;-67
2023/05/20 00:50:45;;;;;;;11.97;9.00;;;;;;;15.28;100.00;101829.88;2065000;28;20946;-67
2023/05/20 00:51:46;;;;;;;11.40;8.40;;;;;;;14.51;100.00;101722.81;2065075;28;20525;-67
2023/05/20 00:52:50;;;;;;;11.97;8.90;;;;;;;15.27;100.00;101825.47;2069348;28;20496;-67
2023/05/20 00:53:50;;;;;;;9.80;8.70;;;;;;;15.27;100.00;101830.31;2072486;28;20195;-67
2023/05/20 00:54:51;;;;;;;10.63;9.47;;;;;;;15.19;100.00;101814.91;2069658;28;20450;-67
2023/05/20 00:55:51;;;;;;;13.47;8.93;;;;;;;15.23;100.00;101827.59;2065095;28;20188;-67
2023/05/20 00:56:52;;;;;;;10.87;8.73;;;;;;;15.20;100.00;101825.66;2065979;28;20180;-67
2023/05/20 00:57:53;;;;;;;10.33;8.73;;;;;;;15.21;100.00;101823.66;2072930;28;20681;-67
2023/05/20 00:58:55;;;;;;;11.83;8.50;;;;;;;15.20;100.00;101825.66;2065020;28;20198;-67
2023/05/20 00:59:55;;;;;;;12.93;8.17;;;;;;;15.17;100.00;101842.50;2071689;28;20452;-67
2023/05/20 01:00:56;;;;;;;11.40;7.97;;;;;;;15.17;100.00;101829.31;2072739;28;20454;-66
2023/05/20 01:01:56;;;;;;;10.20;8.47;;;;;;;15.18;100.00;101830.13;2072970;28;20249;-66
2023/05/20 01:02:57;;;;;;;10.73;7.90;;;;;;;14.90;100.00;101784.09;2069199;28;20540;-67
2023/05/20 01:03:58;;;;;;;11.07;8.30;;;;;;;15.09;100.00;101816.75;2066994;28;20253;-67
2023/05/20 01:04:59;;;;;;;9.67;8.23;;;;;;;14.48;100.00;101729.25;2070645;28;20259;-67
2023/05/20 01:06:00;;;;;;;12.50;9.03;;;;;;;15.14;100.00;101835.00;2065000;28;20424;-67
2023/05/20 01:07:03;;;;;;;12.60;8.90;;;;;;;15.13;100.00;101833.41;2064989;28;20284;-67
2023/05/20 01:08:04;;;;;;;12.00;8.97;;;;;;;15.11;100.00;101830.28;2064286;28;20193;-67
2023/05/20 01:09:04;;;;;;;12.60;9.67;;;;;;;15.06;100.00;101826.00;2063768;28;20490;-67
2023/05/20 01:10:06;;;;;;;11.23;9.03;;;;;;;15.07;100.00;101829.56;2064761;28;20717;-67
2023/05/20 01:11:13;;;;;;;11.70;8.97;;;;;;;15.08;100.00;101828.34;2064389;28;20200;-67
2023/05/20 01:12:28;;;;;;;14.77;9.97;;;;;;;15.02;100.00;101819.69;2064877;28;20975;-67
2023/05/20 01:13:35;;;;;;;12.90;8.83;;;;;;;15.03;100.00;101828.88;2064825;28;20460;-67
2023/05/20 01:14:48;;;;;;;15.50;7.93;;;;;;;14.66;100.00;101779.09;2064734;28;20792;-67
2023/05/20 01:15:52;;;;;;;11.00;8.10;;;;;;;14.90;100.00;101822.41;2064992;28;20448;-67
2023/05/20 01:16:57;;;;;;;10.57;7.90;;;;;;;14.19;100.00;101719.94;2064675;28;20974;-67
2023/05/20 01:18:00;;;;;;;10.97;8.20;;;;;;;14.82;100.00;101846.09;2070554;28;20447;-67
2023/05/20 01:19:05;;;;;;;9.93;7.90;;;;;;;14.80;100.00;101815.81;2069264;28;20439;-67
2023/05/20 01:20:10;;;;;;;14.10;8.33;;;;;;;14.82;100.00;101818.97;2064860;28;20440;-67
2023/05/20 01:21:12;;;;;;;11.83;7.93;;;;;;;14.84;100.00;101810.16;2067126;28;20424;-67
2023/05/20 01:22:14;;;;;;;13.23;8.00;;;;;;;14.74;100.00;101800.81;2072865;28;20440;-67
2023/05/20 01:23:16;;;;;;;12.87;8.03;;;;;;;14.81;100.00;101808.25;2072205;28;20427;-67
2023/05/20 01:24:16;;;;;;;15.03;8.90;;;;;;;14.79;100.00;101805.88;2064874;28;20843;-67
2023/05/20 01:25:16;;;;;;;15.17;9.03;;;;;;;14.70;100.00;101802.13;2064552;28;20443;-67
2023/05/20 01:26:18;;;;;;;12.23;9.10;;;;;;;14.78;100.00;101809.91;2071521;28;20668;-67
2023/05/20 01:27:21;;;;;;;13.67;9.70;;;;;;;14.76;100.00;101803.94;2072436;28;20233;-67
2023/05/20 01:28:22;;;;;;;10.80;8.87;;;;;;;14.73;100.00;101810.41;2068063;28;20970;-67
2023/05/20 01:29:23;;;;;;;10.90;9.30;;;;;;;14.74;100.00;101811.19;2064198;28;20878;-67
2023/05/20 01:30:32;;;;;;;12.97;10.10;;;;;;;14.70;100.00;101810.50;2064566;28;20546;-67
2023/05/20 01:31:37;;;;;;;12.90;9.17;;;;;;;14.68;100.00;101810.91;2064654;28;20422;-67
2023/05/20 01:32:41;;;;;;;12.67;9.67;;;;;;;14.39;100.00;101776.47;2064588;28;20456;-67
2023/05/20 01:33:43;;;;;;;9.93;8.87;;;;;;;14.67;100.00;101814.94;2064677;28;20438;-67
2023/05/20 01:34:46;;;;;;;10.47;9.20;;;;;;;14.66;100.00;101813.34;2064441;28;20423;-67
2023/05/20 01:35:47;;;;;;;12.17;9.43;;;;;;;14.64;100.00;101818.56;2071608;28;20465;-67
2023/05/20 01:36:48;;;;;;;10.80;9.30;;;;;;;14.63;100.00;101819.78;2072768;28;20456;-67
2023/05/20 01:37:51;;;;;;;12.07;8.40;;;;;;;14.21;100.00;101756.56;2065537;28;20212;-67
2023/05/20 01:38:52;;;;;;;11.97;8.90;;;;;;;14.63;100.00;101813.41;2064578;28;20447;-67
2023/05/20 01:39:53;;;;;;;12.43;8.63;;;;;;;14.63;100.00;101814.22;2064204;28;20943;-67
2023/05/20 01:40:57;;;;;;;10.13;8.93;;;;;;;14.59;100.00;101816.28;2064359;28;20518;-67
2023/05/20 01:41:58;;;;;;;10.50;9.27;;;;;;;14.57;100.00;101810.38;2064581;28;20431;-67
2023/05/20 01:42:59;;;;;;;10.40;8.80;;;;;;;14.58;100.00;101811.94;2064547;28;20518;-67
2023/05/20 01:43:59;;;;;;;11.30;8.30;;;;;;;13.66;100.00;101670.06;2065596;28;20416;-67
2023/05/20 01:45:00;;;;;;;8.80;7.53;;;;;;;13.66;100.00;101674.84;2072874;28;20956;-67
2023/05/20 01:46:01;;;;;;;12.87;8.17;;;;;;;14.57;100.00;101809.56;2072910;28;20200;-67
2023/05/20 01:47:02;;;;;;;9.67;7.97;;;;;;;14.48;100.00;101798.19;2065206;28;20650;-67
2023/05/20 01:48:02;;;;;;;11.60;7.60;;;;;;;14.52;100.00;101812.88;2064567;28;20475;-67
2023/05/20 01:49:03;;;;;;;9.77;7.63;;;;;;;13.90;100.00;101710.59;2069010;28;20212;-67
2023/05/20 01:50:04;;;;;;;11.90;7.77;;;;;;;14.48;100.00;101810.16;2072445;28;20224;-67
2023/05/20 01:51:05;;;;;;;8.87;7.53;;;;;;;14.06;100.00;101737.72;2069805;28;20330;-67
2023/05/20 01:52:05;;;;;;;10.43;8.00;;;;;;;14.45;100.00;101802.63;2064631;28;20487;-67
2023/05/20 01:53:08;;;;;;;11.53;8.20;;;;;;;14.44;100.00;101805.88;2064665;28;20207;-67
2023/05/20 01:54:08;;;;;;;10.67;8.73;;;;;;;14.43;100.00;101793.91;2072819;28;20180;-67
2023/05/20 01:55:09;;;;;;;10.40;9.30;;;;;;;14.45;100.00;101799.84;2072661;28;20540;-67
2023/05/20 01:56:09;;;;;;;10.57;9.47;;;;;;;14.43;100.00;101795.91;2066187;28;20186;-67
2023/05/20 01:57:10;;;;;;;11.07;9.23;;;;;;;14.42;100.00;101795.16;2068813;28;20623;-67
2023/05/20 01:58:10;;;;;;;11.93;8.80;;;;;;;14.42;100.00;101800.72;2067761;28;20680;-67
2023/05/20 01:59:10;;;;;;;13.33;9.07;;;;;;;13.29;100.00;101620.28;2063775;28;20198;-67
2023/05/20 02:00:11;;;;;;;12.23;9.30;;;;;;;14.43;100.00;101796.72;2066494;28;20209;-67
2023/05/20 02:01:12;;;;;;;10.03;9.00;;;;;;;14.28;100.00;101775.91;2071507;28;20194;-67
2023/05/20 02:02:13;;;;;;;11.53;9.97;;;;;;;14.42;100.00;101811.88;2064575;28;20189;-67
2023/05/20 02:03:13;;;;;;;13.10;9.03;;;;;;;14.42;100.00;101797.94;2072364;28;20185;-67
2023/05/20 02:04:13;;;;;;;11.13;9.93;;;;;;;14.42;100.00;101795.16;2072713;28;20442;-67
2023/05/20 02:05:15;;;;;;;10.50;9.47;;;;;;;14.44;100.00;101801.06;2067025;28;20264;-67
2023/05/20 02:06:15;;;;;;;13.50;9.10;;;;;;;14.42;100.00;101803.50;2064374;28;20194;-67
2023/05/20 02:07:20;;;;;;;14.27;9.80;;;;;;;14.43;100.00;101807.88;2064077;28;20947;-67
2023/05/20 02:08:20;;;;;;;12.37;9.33;;;;;;;14.43;100.00;101805.09;2064395;28;20260;-67
2023/05/20 02:09:21;;;;;;;11.23;8.90;;;;;;;14.43;100.00;101812.66;2063876;28;20461;-67
2023/05/20 02:10:21;;;;;;;11.67;9.67;;;;;;;14.42;100.00;101802.72;2064150;28;20201;-67
2023/05/20 02:11:21;;;;;;;10.73;8.90;;;;;;;14.41;100.00;101803.94;2064847;28;20193;-67
2023/05/20 02:12:22;;;;;;;14.47;9.10;;;;;;;14.41;100.00;101806.72;2063737;28;20189;-67
2023/05/20 02:13:22;;;;;;;13.30;8.50;;;;;;;14.38;100.00;101811.16;2063694;28;20209;-67
2023/05/20 02:14:23;;;;;;;10.17;8.83;;;;;;;14.30;100.00;101806.94;2068933;28;20264;-67
2023/05/20 02:15:23;;;;;;;11.50;9.17;;;;;;;14.20;100.00;101801.59;2068322;28;20202;-67
2023/05/20 02:16:23;;;;;;;11.23;8.67;;;;;;;14.17;100.00;101805.19;2064420;28;20204;-67
2023/05/20 02:17:25;;;;;;;11.70;9.53;;;;;;;13.13;100.00;101647.22;2065708;28;20281;-67
2023/05/20 02:18:25;;;;;;;10.90;9.30;;;;;;;14.00;100.00;101775.66;2072327;28;20209;-67
2023/05/20 02:19:25;;;;;;;10.90;9.60;;;;;;;14.20;100.00;101807.16;2071370;28;20436;-67
2023/05/20 02:20:26;;;;;;;11.73;9.93;;;;;;;14.21;100.00;101808.72;2071811;28;20193;-67
2023/05/20 02:21:26;;;;;;;10.10;9.10;;;;;;;14.23;100.00;101809.88;2065985;28;20209;-67
2023/05/20 02:22:26;;;;;;;13.10;8.97;;;;;;;14.24;100.00;101830.19;2064094;28;20184;-67
2023/05/20 02:23:27;;;;;;;13.03;9.60;;;;;;;14.24;100.00;101803.06;2068682;28;20196;-67
2023/05/20 02:24:27;;;;;;;10.80;8.63;;;;;;;14.23;100.00;101815.44;2072357;28;20729;-67
2023/05/20 02:25:28;;;;;;;15.30;9.30;;;;;;;14.23;100.00;101809.88;2070542;28;20741;-67
2023/05/20 02:26:28;;;;;;;12.07;9.20;;;;;;;14.20;100.00;101816.28;2064363;28;20648;-67
2023/05/20 02:27:29;;;;;;;10.13;9.13;;;;;;;14.18;100.00;101813.13;2064075;28;20187;-67
2023/05/20 02:28:29;;;;;;;12.13;8.87;;;;;;;14.18;100.00;101813.13;2072248;28;20351;-67
2023/05/20 02:29:30;;;;;;;10.07;9.07;;;;;;;14.20;100.00;101821.09;2071896;28;20687;-67
2023/05/20 02:30:30;;;;;;;11.97;8.70;;;;;;;14.21;100.00;101820.69;2066769;28;20197;-67
2023/05/20 02:31:31;;;;;;;16.23;9.73;;;;;;;14.22;100.00;101821.44;2064216;28;20217;-66
2023/05/20 02:32:32;;;;;;;11.37;9.30;;;;;;;14.22;100.00;101821.44;2067630;28;20197;-67
2023/05/20 02:33:32;;;;;;;13.63;9.23;;;;;;;14.24;100.00;101816.25;2072354;28;20232;-67
2023/05/20 02:34:33;;;;;;;13.17;9.47;;;;;;;14.26;100.00;101822.16;2071222;28;20482;-67
2023/05/20 02:35:34;;;;;;;10.47;9.27;;;;;;;14.24;100.00;101819.03;2064419;28;20269;-67
2023/05/20 02:36:35;;;;;;;10.33;8.47;;;;;;;14.25;100.00;101820.59;2073081;28;20194;-67
2023/05/20 02:37:37;;;;;;;13.00;8.93;;;;;;;14.24;100.00;101825.38;2073117;28;20251;-67
2023/05/20 02:38:38;;;;;;;13.83;9.37;;;;;;;14.25;100.00;101824.16;2066133;28;20227;-67
2023/05/20 02:39:38;;;;;;;12.50;9.70;;;;;;;14.27;100.00;101832.09;2063777;28;20449;-67
2023/05/20 02:40:39;;;;;;;11.00;9.10;;;;;;;14.28;100.00;101830.88;2064081;28;20299;-67
2023/05/20 02:41:39;;;;;;;11.30;9.13;;;;;;;14.27;100.00;101829.31;2064179;28;20210;-67
2023/05/20 02:42:40;;;;;;;12.00;9.00;;;;;;;14.27;100.00;101829.31;2064134;28;20180;-67
2023/05/20 02:43:40;;;;;;;13.73;9.30;;;;;;;14.27;100.00;101830.13;2064002;28;20192;-67
2023/05/20 02:44:41;;;;;;;11.50;9.07;;;;;;;14.29;100.00;101827.66;2064470;28;20209;-67
2023/05/20 02:45:41;;;;;;;13.13;9.50;;;;;;;14.24;100.00;101810.66;2064324;28;20578;-67
2023/05/20 02:46:42;;;;;;;11.13;9.20;;;;;;;14.04;100.00;101784.75;2064190;28;20197;-67
2023/05/20 02:47:42;;;;;;;10.90;8.97;;;;;;;14.14;100.00;101795.69;2063974;28;20193;-67
2023/05/20 02:48:43;;;;;;;9.67;8.67;;;;;;;14.31;100.00;101814.09;2064030;28;20197;-67
2023/05/20 02:49:43;;;;;;;11.20;8.87;;;;;;;14.23;100.00;101797.91;2063607;28;20580;-67
2023/05/20 02:50:45;;;;;;;10.47;9.30;;;;;;;14.35;100.00;101822.38;2063969;28;20177;-67
2023/05/20 02:51:46;;;;;;;14.63;9.47;;;;;;;14.12;100.00;101783.38;2064263;28;20177;-67
2023/05/20 02:52:46;;;;;;;13.27;9.10;;;;;;;14.35;100.00;101822.38;2065352;28;20421;-67
2023/05/20 02:53:47;;;;;;;13.57;10.27;;;;;;;14.38;100.00;101824.31;2068891;28;20204;-67
2023/05/20 02:54:47;;;;;;;15.80;9.73;;;;;;;14.37;100.00;101826.31;2068136;28;20639;-67
2023/05/20 02:55:47;;;;;;;13.77;10.03;;;;;;;14.38;100.00;101830.69;2067065;28;20198;-67
2023/05/20 02:56:48;;;;;;;14.73;10.10;;;;;;;14.38;100.00;101830.69;2071335;28;20717;-67
2023/05/20 02:57:48;;;;;;;15.07;10.40;;;;;;;14.36;100.00;101827.53;2074585;28;20205;-67
2023/05/20 02:58:49;;;;;;;14.03;10.07;;;;;;;14.40;100.00;101830.25;2072608;28;20537;-67
2023/05/20 02:59:49;;;;;;;17.80;9.80;;;;;;;14.31;100.00;101821.66;2066426;28;20220;-67
2023/05/20 03:00:50;;;;;;;11.73;10.00;;;;;;;14.43;100.00;101840.53;2067040;28;20276;-67
2023/05/20 03:01:50;;;;;;;14.17;9.53;;;;;;;14.43;100.00;101832.16;2073419;28;20189;-67
2023/05/20 03:02:51;;;;;;;15.40;9.93;;;;;;;14.41;100.00;101838.19;2074896;28;20196;-67
2023/05/20 03:03:51;;;;;;;13.43;9.53;;;;;;;14.43;100.00;101835.75;2075024;28;20200;-67
2023/05/20 03:04:53;;;;;;;15.97;10.13;;;;;;;14.11;100.00;101787.38;2074845;28;20643;-67
2023/05/20 03:05:53;;;;;;;13.20;10.23;;;;;;;14.44;100.00;101840.13;2071238;28;20567;-67
2023/05/20 03:06:56;;;;;;;12.43;9.70;;;;;;;14.45;100.00;101841.69;2066716;28;20496;-67
2023/05/20 03:07:56;;;;;;;13.73;10.17;;;;;;;14.45;100.00;101847.25;2066501;28;20178;-67
2023/05/20 03:08:58;;;;;;;14.53;10.33;;;;;;;14.45;100.00;101860.44;2066662;28;20471;-67
2023/05/20 03:09:58;;;;;;;13.53;9.57;;;;;;;14.46;100.00;101846.06;2066613;28;20317;-67
2023/05/20 03:10:59;;;;;;;16.53;10.33;;;;;;;14.45;100.00;101841.69;2066558;28;20435;-67
2023/05/20 03:12:00;;;;;;;13.17;9.47;;;;;;;14.46;100.00;101846.06;2066989;28;20203;-67
2023/05/20 03:13:00;;;;;;;12.63;8.93;;;;;;;14.48;100.00;101843.63;2066751;28;20479;-67
2023/05/20 03:14:01;;;;;;;10.83;9.57;;;;;;;14.47;100.00;101853.22;2066765;28;20261;-67
2023/05/20 03:15:02;;;;;;;12.27;9.60;;;;;;;14.48;100.00;101848.41;2066721;28;20224;-67
2023/05/20 03:16:03;;;;;;;14.57;9.87;;;;;;;14.46;100.00;101851.66;2066914;28;20182;-66
2023/05/20 03:17:03;;;;;;;11.10;8.80;;;;;;;14.49;100.00;101852.78;2066334;28;20954;-67
2023/05/20 03:18:04;;;;;;;13.33;9.10;;;;;;;14.50;100.00;101851.56;2072851;28;20181;-67
2023/05/20 03:19:05;;;;;;;12.97;10.00;;;;;;;14.51;100.00;101851.13;2073980;28;20182;-67
2023/05/20 03:20:06;;;;;;;11.80;8.40;;;;;;;14.50;100.00;101846.75;2067792;28;20930;-67
2023/05/20 03:21:07;;;;;;;12.87;7.80;;;;;;;14.36;100.00;101829.53;2066761;28;20565;-67
2023/05/20 03:22:08;;;;;;;11.37;7.80;;;;;;;14.19;100.00;101798.00;2066813;28;20487;-67
2023/05/20 03:23:08;;;;;;;15.80;8.00;;;;;;;13.68;100.00;101717.00;2073921;28;20193;-67
2023/05/20 03:24:09;;;;;;;12.53;7.90;;;;;;;14.48;100.00;101843.63;2074415;28;20190;-67
2023/05/20 03:25:10;;;;;;;13.70;8.80;;;;;;;14.47;100.00;101841.25;2066590;28;20451;-67
2023/05/20 03:26:10;;;;;;;11.43;8.80;;;;;;;14.48;100.00;101837.25;2066807;28;20182;-67
2023/05/20 03:27:11;;;;;;;10.87;9.57;;;;;;;14.38;100.00;101818.72;2066553;28;20263;-67
2023/05/20 03:28:11;;;;;;;13.93;9.17;;;;;;;14.48;100.00;101828.88;2066965;28;20209;-67
2023/05/20 03:29:12;;;;;;;12.77;9.83;;;;;;;14.48;100.00;101828.88;2066103;28;20271;-67
2023/05/20 03:30:12;;;;;;;12.73;9.73;;;;;;;14.48;100.00;101829.69;2066920;28;20722;-67
2023/05/20 03:31:13;;;;;;;15.33;10.50;;;;;;;13.65;100.00;101718.63;2066659;28;20203;-67
2023/05/20 03:32:13;;;;;;;11.23;9.83;;;;;;;14.44;100.00;101840.13;2074123;28;20620;-67
2023/05/20 03:33:14;;;;;;;12.27;10.93;;;;;;;14.43;100.00;101841.34;2076342;28;20647;-67
2023/05/20 03:34:15;;;;;;;13.03;9.70;;;;;;;14.43;100.00;101846.91;2067722;28;20189;-67
2023/05/20 03:35:15;;;;;;;12.33;9.83;;;;;;;14.42;100.00;101845.34;2075108;28;20951;-67
2023/05/20 03:36:15;;;;;;;14.77;10.40;;;;;;;14.47;100.00;101844.06;2066649;28;20201;-67
2023/05/20 03:37:16;;;;;;;11.60;10.03;;;;;;;14.46;100.00;101845.28;2073475;28;20653;-67
2023/05/20 03:38:16;;;;;;;12.57;9.97;;;;;;;14.26;100.00;101813.81;2075911;28;20189;-67
2023/05/20 03:39:17;;;;;;;18.27;10.07;;;;;;;14.49;100.00;101847.97;2073693;28;20197;-67
2023/05/20 03:40:17;;;;;;;13.53;10.37;;;;;;;14.50;100.00;101846.75;2070926;28;20189;-67
2023/05/20 03:41:18;;;;;;;13.63;9.83;;;;;;;14.50;100.00;101862.72;2069270;28;20173;-67
2023/05/20 03:42:18;;;;;;;14.13;10.53;;;;;;;14.53;100.00;101848.69;2074709;28;20259;-67
2023/05/20 03:43:19;;;;;;;11.57;10.27;;;;;;;14.39;100.00;101829.47;2074557;28;20193;-67
2023/05/20 03:44:20;;;;;;;15.53;10.27;;;;;;;14.53;100.00;101847.91;2066444;28;20213;-67
2023/05/20 03:45:21;;;;;;;17.17;10.30;;;;;;;14.41;100.00;101829.03;2073356;28;20999;-67
2023/05/20 03:46:21;;;;;;;12.83;10.30;;;;;;;14.53;100.00;101847.91;2068648;28;20272;-67
2023/05/20 03:47:22;;;;;;;14.17;9.57;;;;;;;14.56;100.00;101844.25;2066307;28;20316;-67
2023/05/20 03:48:22;;;;;;;16.33;10.27;;;;;;;14.56;100.00;101847.81;2070685;28;20197;-67
2023/05/20 03:49:22;;;;;;;11.97;9.87;;;;;;;14.60;100.00;101847.78;2074056;28;20502;-67
2023/05/20 03:50:23;;;;;;;14.93;10.03;;;;;;;14.61;100.00;101850.13;2073086;28;20181;-67
2023/05/20 03:51:23;;;;;;;12.53;9.70;;;;;;;14.62;100.00;101843.34;2066629;28;20182;-67
2023/05/20 03:52:24;;;;;;;15.27;10.73;;;;;;;14.63;100.00;101835.72;2066903;28;20193;-67
2023/05/20 03:53:25;;;;;;;13.03;10.20;;;;;;;14.65;100.00;101845.25;2074547;28;20268;-67
2023/05/20 03:54:26;;;;;;;14.27;10.77;;;;;;;14.67;100.00;101851.19;2074490;28;20211;-67
2023/05/20 03:55:27;;;;;;;12.47;10.53;;;;;;;14.69;100.00;101839.59;2069309;28;20229;-67
2023/05/20 03:56:27;;;;;;;11.53;10.27;;;;;;;14.68;100.00;101841.59;2066802;28;20823;-67
2023/05/20 03:57:28;;;;;;;12.73;10.97;;;;;;;14.72;100.00;101844.31;2069688;28;20247;-67
2023/05/20 03:58:30;;;;;;;12.03;9.80;;;;;;;14.73;100.00;101834.72;2074589;28;20209;-67
2023/05/20 03:59:30;;;;;;;14.50;10.37;;;;;;;14.70;100.00;101839.16;2073074;28;20184;-67
2023/05/20 04:00:30;;;;;;;13.93;10.73;;;;;;;14.63;100.00;101817.00;2066624;28;20422;-67
2023/05/20 04:01:32;;;;;;;15.77;10.10;;;;;;;14.76;100.00;101840.22;2066701;28;20183;-67
2023/05/20 04:02:33;;;;;;;14.10;10.30;;;;;;;14.76;100.00;101837.44;2074057;28;20574;-67
2023/05/20 04:03:33;;;;;;;17.03;10.53;;;;;;;14.80;100.00;101834.59;2074659;28;20534;-67
2023/05/20 04:04:33;;;;;;;13.63;10.17;;;;;;;14.82;100.00;101834.94;2067830;28;20654;-67
2023/05/20 04:05:35;;;;;;;12.00;9.97;;;;;;;14.80;100.00;101838.16;2065211;28;20190;-67
2023/05/20 04:06:35;;;;;;;13.97;9.90;;;;;;;14.67;100.00;101819.72;2068302;28;20196;-67
2023/05/20 04:07:36;;;;;;;12.10;9.70;;;;;;;14.64;100.00;101828.94;2072934;28;20452;-67
2023/05/20 04:08:36;;;;;;;13.63;10.43;;;;;;;14.82;100.00;101834.94;2073278;28;20264;-67
2023/05/20 04:09:37;;;;;;;13.17;10.47;;;;;;;14.82;100.00;101840.50;2073162;28;20650;-67
2023/05/20 04:10:42;;;;;;;12.43;10.27;;;;;;;14.86;100.00;101844.78;2073269;28;20192;-67
2023/05/20 04:11:43;;;;;;;11.37;10.20;;;;;;;14.89;100.00;101845.94;2066415;28;20456;-67
2023/05/20 04:12:43;;;;;;;15.57;10.47;;;;;;;14.65;100.00;101803.41;2071372;28;20424;-67
2023/05/20 04:13:43;;;;;;;14.17;10.60;;;;;;;14.92;100.00;101845.88;2073455;28;20228;-67
2023/05/20 04:14:44;;;;;;;13.70;10.20;;;;;;;14.91;100.00;101838.69;2069473;28;20236;-67
2023/05/20 04:15:44;;;;;;;14.90;10.27;;;;;;;14.64;100.00;101801.84;2065392;28;20213;-67
2023/05/20 04:16:45;;;;;;;12.37;9.87;;;;;;;14.26;100.00;101735.75;2065190;28;20554;-67
2023/05/20 04:17:47;;;;;;;14.53;9.93;;;;;;;14.99;100.00;101833.75;2069228;28;20677;-67
2023/05/20 04:18:47;;;;;;;16.33;11.10;;;;;;;15.01;100.00;101834.88;2073483;28;20513;-67
2023/05/20 04:19:48;;;;;;;11.27;10.07;;;;;;;14.96;100.00;101837.41;2065306;28;20463;-67
2023/05/20 04:20:48;;;;;;;12.90;10.70;;;;;;;14.97;100.00;101845.34;2065278;28;20653;-67
2023/05/20 04:21:49;;;;;;;14.10;10.50;;;;;;;15.04;100.00;101842.41;2065304;28;20265;-67
2023/05/20 04:22:49;;;;;;;13.27;10.60;;;;;;;15.07;100.00;101840.75;2072387;28;20695;-67
2023/05/20 04:23:50;;;;;;;12.80;10.87;;;;;;;15.09;100.00;101836.31;2072827;28;20664;-67
2023/05/20 04:24:50;;;;;;;14.87;10.10;;;;;;;14.03;100.00;101678.03;2065091;28;20189;-66
2023/05/20 04:25:51;;;;;;;16.33;10.33;;;;;;;15.04;100.00;101831.22;2065254;28;20181;-67
2023/05/20 04:26:51;;;;;;;11.97;10.17;;;;;;;15.16;100.00;101850.09;2065514;28;20261;-67
2023/05/20 04:27:53;;;;;;;12.83;10.23;;;;;;;15.12;100.00;101848.59;2065043;28;20238;-67
2023/05/20 04:28:54;;;;;;;13.57;10.83;;;;;;;15.06;100.00;101844.75;2065113;28;20204;-67
2023/05/20 04:29:54;;;;;;;15.13;10.50;;;;;;;15.13;100.00;101844.59;2064814;28;20543;-67
2023/05/20 04:30:59;;;;;;;15.57;11.13;;;;;;;14.11;100.00;101676.69;2064903;28;20536;-67
2023/05/20 04:32:00;;;;;;;15.83;10.67;;;;;;;15.24;100.00;101847.91;2069257;28;20245;-67
2023/05/20 04:33:02;;;;;;;14.03;9.80;;;;;;;15.26;100.00;101860.22;2073209;28;20535;-67
2023/05/20 04:34:03;;;;;;;12.23;10.30;;;;;;;15.25;100.00;101857.84;2073188;28;20428;-67
2023/05/20 04:35:08;;;;;;;13.27;10.33;;;;;;;15.25;100.00;101863.44;2073204;28;20432;-67
2023/05/20 04:36:10;;;;;;;11.47;10.00;;;;;;;15.25;100.00;101863.44;2080772;28;20189;-67